Mirabel, Québec

11:58 AM EDT on August 04, 2015 (GMT -0400)
Montreal International (Mirabel) | | Change Station
CLOSE
Current Station
Airport
Location: Montreal Mirabel,
Elevation: 269 ft
Nearby Weather Stations

Elev 269 ft 45.68 °N, 74.04 °W | Updated 58 minutes ago

Partly Cloudy
Partly Cloudy
72 °F
Feels Like 72 °F
N
9
Wind Variable Wind from WSW

Today is forecast to be nearly the same temperature as yesterday.

Today
High -- | Low -- °F
--% Chance of Precip.
Yesterday
High -- | Low -- °F
Precip. -- in
5:42 AM 8:20 PM
Waning Gibbous, 76% visible
Pressure 29.80 in
Visibility 45.0 miles
Clouds Few 3000 ft
Few 25000 ft
Dew Point 59 °F
Humidity 64%
Rainfall 0.00 in
Snow Depth Not available.
UV 7 out of 12
Pollen Not available.
Air Quality Not available.
Flu Activity Not available.
METAR CYMX 041500Z 25008KT 200V290 45SM FEW030 FEW250 22/15 A2980 RMK CU1CC1 SLP090 DENSITY ALT 1200FT

More Conditions Fewer Conditions

Pressure 29.80 in
Visibility 45.0 miles
Clouds Few 3000 ft
Few 25000 ft
Dew Point 59 °F
Humidity 64%
Rainfall 0.00 in
Snow Depth Not available.
UV 7 out of 12
Pollen Not available.
Air Quality Not available.
Flu Activity Not available.
METAR CYMX 041500Z 25008KT 200V290 45SM FEW030 FEW250 22/15 A2980 RMK CU1CC1 SLP090 DENSITY ALT 1200FT

More Conditions Fewer Conditions

10-Day Weather Forecast

×

Almanac

Astronomy

Aug. 04, 2015 Rise Set
Actual Time
Civil Twilight
Nautical Twilight
Astronomical Twilight
Moon
Length of Visible Light
Length of Day
Tomorrow will be .
, % of the Moon is Illuminated

Today's Extremes

Country Highs Country Lows

Community

WunderPhotos

Upload Photos

1,843,909 photos uploaded!

WunderBlogs® & News

Nearby

Air Quality

  Air Quality AQ Index Pollutant
Not available.

Snow Depth

Station Depth Elevation

Earthquake Activity

City Distance Mag. Time & Date
Minimum magnitude displayed is 2.5.

Coastal Water Temperatures

Place Temperature

Stations

Nearby Weather Stations

Station Location Temp. Windchill Dew Point Humidity Wind Precip. Elev Updated Type